»·PEaware :: AAL427 KSAN-KPSP

AAL427 :: KSAN-KPSP

FLIGHT INFORMATION

Flight Status: Arrived
Operator:
American Airlines
More flights by this operator :: More flights under this callsign
Pilot: Chris S. (2433)
Aircraft: BOEING 737-800
(B738)
More flights by this aircraft type
Origin: KSAN San Diego Intl-Lindbergh
United States
Destination: KPSP Palm Springs Intl
United States
More flights between these airports :: More routes between these airports
Route: +BRDR7 JLI TRM
File this flight plan on PilotEdge
Remarks:
Altitude:
(Current/Filed)
11,000ft
Speed:
(Current/Filed)
450kts
Departed: 29-Nov-19 01:45 PM
Arrived: 29-Nov-19 02:14 PM
Distance/Time
Traveled:
74nm/0:29
Distance/Time
To Go:
Arrived

Flight Plot

Page will automatically refresh every two minutes.


Map Options




Map Legend


Flown Route
Filed Route
Departure Airport
Arrival Airport
Navaid (VOR, NDB)
Fix

Horizontal Profiles

Position Reports

Time Latitude Longitude Heading Altitude Ground
Speed
29-Nov-19 13:21 32.732358 -117.202793 200 23ft 0kts
29-Nov-19 13:22 32.732358 -117.202793 200 23ft 0kts
29-Nov-19 13:23 32.732358 -117.202793 200 23ft 0kts
29-Nov-19 13:24 32.732358 -117.202793 200 23ft 0kts
29-Nov-19 13:25 32.732358 -117.202793 200 23ft 0kts
29-Nov-19 13:26 32.732358 -117.202793 200 23ft 0kts
29-Nov-19 13:27 32.732358 -117.202793 200 23ft 0kts
29-Nov-19 13:28 32.732358 -117.202793 200 23ft 0kts
29-Nov-19 13:29 32.732358 -117.202793 200 23ft 0kts
29-Nov-19 13:30 32.732358 -117.202793 200 23ft 0kts
29-Nov-19 13:31 32.732358 -117.202793 200 23ft 0kts
29-Nov-19 13:33 32.732745 -117.202584 220 23ft 2kts
29-Nov-19 13:34 32.732822 -117.202163 295 23ft 0kts
29-Nov-19 13:35 32.732822 -117.202163 295 23ft 0kts
29-Nov-19 13:36 32.733636 -117.202782 358 23ft 7kts
29-Nov-19 13:37 32.735449 -117.201752 102 23ft 9kts
29-Nov-19 13:38 32.734201 -117.196629 106 23ft 20kts
29-Nov-19 13:39 32.732721 -117.190438 106 23ft 17kts
29-Nov-19 13:40 32.731454 -117.185193 105 23ft 15kts
29-Nov-19 13:41 32.730335 -117.180716 106 23ft 15kts
29-Nov-19 13:42 32.729531 -117.176869 75 23ft 0kts
29-Nov-19 13:43 32.729531 -117.176869 75 23ft 0kts
29-Nov-19 13:44 32.730167 -117.175678 285 23ft 8kts
29-Nov-19 13:45 32.738247 -117.206831 287 755ft 155kts
29-Nov-19 13:46 32.755548 -117.257822 290 2926ft 201kts
29-Nov-19 13:47 32.774760 -117.329348 260 5376ft 243kts
29-Nov-19 13:48 32.717324 -117.360818 160 8403ft 290kts
29-Nov-19 13:49 32.656158 -117.290367 135 10498ft 329kts
29-Nov-19 13:50 32.614876 -117.184002 93 10994ft 387kts
29-Nov-19 13:51 32.612918 -117.056003 92 10991ft 385kts
29-Nov-19 13:52 32.614435 -116.931918 81 10980ft 373kts
29-Nov-19 13:52 32.625232 -116.830229 80 10985ft 373kts
29-Nov-19 13:54 32.703272 -116.740254 10 10972ft 342kts
29-Nov-19 13:55 32.795070 -116.710330 9 10950ft 342kts
29-Nov-19 13:55 32.871135 -116.683508 10 10941ft 342kts
29-Nov-19 13:56 32.962200 -116.650677 10 10940ft 342kts
29-Nov-19 13:58 33.066926 -116.612667 10 10925ft 319kts
29-Nov-19 13:58 33.133686 -116.587425 16 10915ft 291kts
29-Nov-19 13:59 33.202207 -116.533052 30 11000ft 301kts
29-Nov-19 14:00 33.269833 -116.473590 29 11012ft 301kts
29-Nov-19 14:01 33.337504 -116.414432 30 10887ft 300kts
29-Nov-19 14:02 33.404702 -116.356196 30 10107ft 297kts
29-Nov-19 14:03 33.471152 -116.298147 32 9322ft 295kts
29-Nov-19 14:04 33.535808 -116.241377 32 8944ft 275kts
29-Nov-19 14:05 33.594597 -116.189801 29 8429ft 253kts
29-Nov-19 14:06 33.642683 -116.219931 284 7275ft 212kts
29-Nov-19 14:07 33.656968 -116.284704 280 6485ft 190kts
29-Nov-19 14:08 33.670805 -116.345789 281 4910ft 188kts
29-Nov-19 14:09 33.703928 -116.393991 315 3435ft 193kts
29-Nov-19 14:10 33.743051 -116.429522 317 2516ft 160kts
29-Nov-19 14:11 33.776891 -116.462022 320 1554ft 153kts
29-Nov-19 14:12 33.810921 -116.491169 324 749ft 148kts
29-Nov-19 14:13 33.839539 -116.516468 328 485ft 39kts

Navigation Log

Ident Type
Flight plan parsing failed, navigation log unavailable